createdAt,value
2022-09-16T00:00:58.462Z,14.60
2022-09-16T00:03:25.782Z,14.60
2022-09-16T00:05:56.052Z,14.60
2022-09-16T00:08:23.482Z,14.70
2022-09-16T00:10:51.299Z,14.70
2022-09-16T00:13:19.214Z,14.60
2022-09-16T00:15:51.261Z,14.50
2022-09-16T00:18:20.274Z,14.40
2022-09-16T00:20:50.698Z,14.40
2022-09-16T00:23:18.594Z,14.40
2022-09-16T00:25:50.506Z,14.30
2022-09-16T00:28:17.199Z,14.20
2022-09-16T00:30:43.883Z,14.10
2022-09-16T00:33:10.940Z,14.10
2022-09-16T00:35:40.201Z,13.90
2022-09-16T00:38:07.457Z,13.80
2022-09-16T00:40:43.336Z,13.70
2022-09-16T00:43:14.999Z,13.60
2022-09-16T00:45:48.050Z,13.70
2022-09-16T00:48:23.974Z,13.70
2022-09-16T00:50:57.781Z,13.60
2022-09-16T00:53:34.333Z,13.60
2022-09-16T00:56:09.586Z,13.70
2022-09-16T00:58:49.920Z,13.70
2022-09-16T01:01:22.297Z,13.80
2022-09-16T01:03:56.428Z,13.80
2022-09-16T01:06:35.845Z,13.80
2022-09-16T01:09:03.955Z,13.70
2022-09-16T01:11:30.624Z,13.80
2022-09-16T01:14:20.973Z,13.90
2022-09-16T01:17:02.813Z,13.90
2022-09-16T01:20:23.268Z,13.80
2022-09-16T01:23:11.743Z,13.90
2022-09-16T01:25:59.463Z,13.90
2022-09-16T01:29:03.670Z,14.00
2022-09-16T01:31:56.001Z,14.00
2022-09-16T01:34:54.811Z,14.00
2022-09-16T01:38:14.384Z,14.00
2022-09-16T01:41:22.162Z,13.80
2022-09-16T01:44:47.205Z,13.70
2022-09-16T01:47:50.519Z,13.70
2022-09-16T01:50:45.700Z,13.80
2022-09-16T01:53:30.373Z,13.90
2022-09-16T01:56:16.008Z,14.00
2022-09-16T01:59:15.185Z,14.10
2022-09-16T02:01:57.367Z,14.10
2022-09-16T02:04:57.175Z,14.10
2022-09-16T02:07:32.483Z,14.10
2022-09-16T02:10:18.839Z,14.20
2022-09-16T02:12:52.855Z,14.20
2022-09-16T02:15:24.245Z,14.20
2022-09-16T02:18:04.496Z,14.10
2022-09-16T02:20:48.821Z,14.00
2022-09-16T02:23:25.518Z,14.00
2022-09-16T02:25:55.452Z,14.00
2022-09-16T02:28:34.988Z,14.00
2022-09-16T02:31:07.738Z,14.00
2022-09-16T02:33:44.542Z,14.10
2022-09-16T02:36:19.437Z,14.10
2022-09-16T02:38:59.754Z,14.00
2022-09-16T02:41:26.749Z,13.90
2022-09-16T02:43:54.708Z,13.80
2022-09-16T02:46:51.251Z,13.70
2022-09-16T02:49:20.980Z,13.60
2022-09-16T02:52:20.969Z,13.70
2022-09-16T02:55:30.741Z,13.70
2022-09-16T02:57:57.979Z,13.70
2022-09-16T03:00:25.790Z,13.60
2022-09-16T03:02:54.770Z,13.50
2022-09-16T03:05:27.904Z,13.60
2022-09-16T03:07:55.044Z,13.60
2022-09-16T03:10:39.552Z,13.60
2022-09-16T03:13:22.557Z,13.70
2022-09-16T03:16:23.189Z,13.70
2022-09-16T03:19:09.692Z,13.70
2022-09-16T03:21:50.610Z,13.80
2022-09-16T03:25:12.488Z,13.90
2022-09-16T03:28:06.632Z,13.80
2022-09-16T03:31:08.283Z,13.60
2022-09-16T03:33:59.240Z,13.50
2022-09-16T03:36:35.859Z,13.50
2022-09-16T03:39:04.708Z,13.40
2022-09-16T03:41:34.667Z,13.50
2022-09-16T03:44:04.251Z,13.40
2022-09-16T03:46:35.225Z,13.20
2022-09-16T03:49:02.161Z,13.20
2022-09-16T03:51:28.949Z,13.10
2022-09-16T03:53:58.301Z,13.10
2022-09-16T03:56:26.605Z,13.00
2022-09-16T03:58:53.261Z,13.10
2022-09-16T04:01:20.532Z,13.00
2022-09-16T04:03:47.390Z,13.10
2022-09-16T04:06:14.312Z,13.10
2022-09-16T04:08:41.980Z,13.00
2022-09-16T04:11:11.149Z,13.00
2022-09-16T04:13:37.832Z,13.00
2022-09-16T04:16:05.170Z,13.00
2022-09-16T04:18:34.695Z,13.00
2022-09-16T04:21:04.820Z,12.90
2022-09-16T04:23:31.854Z,12.90
2022-09-16T04:26:01.521Z,13.00
2022-09-16T04:28:30.903Z,13.00
2022-09-16T04:31:03.395Z,13.10
2022-09-16T04:33:34.069Z,13.10
2022-09-16T04:36:16.551Z,13.10
2022-09-16T04:38:47.556Z,13.20
2022-09-16T04:41:18.719Z,13.10
2022-09-16T04:43:46.848Z,13.20
2022-09-16T04:46:13.895Z,13.30
2022-09-16T04:48:43.158Z,13.30
2022-09-16T04:51:12.121Z,13.30
2022-09-16T04:53:44.113Z,13.40
2022-09-16T04:56:37.035Z,13.40
2022-09-16T04:59:05.530Z,13.40
2022-09-16T05:01:37.011Z,13.30
2022-09-16T05:04:07.372Z,13.30
2022-09-16T05:06:38.180Z,13.20
2022-09-16T05:09:05.600Z,13.30
2022-09-16T05:11:37.237Z,13.30
2022-09-16T05:14:07.972Z,13.20
2022-09-16T05:16:34.851Z,13.10
2022-09-16T05:19:04.832Z,13.00
2022-09-16T05:21:35.919Z,13.00
2022-09-16T05:24:08.406Z,12.90
2022-09-16T05:26:38.641Z,12.90
2022-09-16T05:29:16.930Z,12.90
2022-09-16T05:31:47.254Z,12.80
2022-09-16T05:34:21.469Z,12.80
2022-09-16T05:36:50.573Z,12.70
2022-09-16T05:39:26.288Z,12.80
2022-09-16T05:41:59.544Z,12.80
2022-09-16T05:44:28.252Z,12.90
2022-09-16T05:46:55.785Z,12.80
2022-09-16T05:49:23.500Z,12.80
2022-09-16T05:51:50.525Z,12.80
2022-09-16T05:54:18.749Z,12.80
2022-09-16T05:56:47.261Z,12.80
2022-09-16T05:59:15.738Z,12.80
2022-09-16T06:01:44.550Z,12.80
2022-09-16T06:04:14.104Z,12.90
2022-09-16T06:06:46.752Z,13.00
2022-09-16T06:09:22.941Z,13.00
2022-09-16T06:11:55.409Z,12.90
2022-09-16T06:14:25.028Z,12.80
2022-09-16T06:16:51.723Z,12.80
2022-09-16T06:19:20.342Z,12.80
2022-09-16T06:21:47.988Z,12.90
2022-09-16T06:24:17.165Z,12.80
2022-09-16T06:26:47.398Z,12.80
2022-09-16T06:29:16.915Z,12.80
2022-09-16T06:31:43.734Z,12.80
2022-09-16T06:34:17.169Z,12.70
2022-09-16T06:36:45.293Z,12.80
2022-09-16T06:39:15.805Z,12.80
2022-09-16T06:41:45.063Z,12.80
2022-09-16T06:44:11.752Z,12.90
2022-09-16T06:46:39.148Z,12.90
2022-09-16T06:49:06.730Z,13.00
2022-09-16T06:51:35.763Z,13.00
2022-09-16T06:54:07.122Z,13.00
2022-09-16T06:56:37.458Z,13.00
2022-09-16T06:59:04.233Z,13.10
2022-09-16T07:01:32.615Z,12.90
2022-09-16T07:04:05.442Z,12.90
2022-09-16T07:09:20.983Z,12.90
2022-09-16T07:11:47.661Z,12.90
2022-09-16T07:14:14.624Z,12.90
2022-09-16T07:16:41.863Z,12.90
2022-09-16T07:19:08.715Z,13.00
2022-09-16T07:21:35.649Z,13.00
2022-09-16T07:24:04.080Z,13.10
2022-09-16T07:26:34.802Z,13.10
2022-09-16T07:29:05.378Z,13.00
2022-09-16T07:31:36.870Z,13.00
2022-09-16T07:34:06.579Z,13.10
2022-09-16T07:36:43.461Z,13.10
2022-09-16T07:39:12.553Z,13.10
2022-09-16T07:41:43.117Z,13.20
2022-09-16T07:44:16.745Z,13.30
2022-09-16T07:46:44.262Z,13.30
2022-09-16T07:49:14.571Z,13.30
2022-09-16T07:51:41.870Z,13.40
2022-09-16T07:54:13.364Z,13.60
2022-09-16T07:56:44.856Z,13.80
2022-09-16T07:59:18.713Z,13.90
2022-09-16T08:01:48.317Z,14.00
2022-09-16T08:04:17.524Z,14.10
2022-09-16T08:06:44.267Z,13.90
2022-09-16T08:09:36.817Z,13.70
2022-09-16T08:11:58.551Z,13.40
2022-09-16T08:14:25.427Z,13.20
2022-09-16T08:16:52.189Z,13.20
2022-09-16T08:19:20.460Z,13.10
2022-09-16T08:21:47.282Z,13.10
2022-09-16T08:24:14.284Z,12.90
2022-09-16T08:26:41.172Z,13.00
2022-09-16T08:29:09.667Z,13.00
2022-09-16T08:31:38.765Z,13.20
2022-09-16T08:34:06.230Z,13.30
2022-09-16T08:36:33.751Z,13.40
2022-09-16T08:39:00.921Z,13.60
2022-09-16T08:42:24.851Z,13.90
2022-09-16T08:45:35.553Z,14.30
2022-09-16T08:48:28.716Z,14.60
2022-09-16T08:51:03.904Z,14.50
2022-09-16T08:54:10.109Z,14.50
2022-09-16T08:56:40.404Z,14.70
2022-09-16T08:59:25.474Z,15.10
2022-09-16T09:02:32.599Z,15.30
2022-09-16T09:04:59.432Z,15.30
2022-09-16T09:08:23.193Z,15.10
2022-09-16T09:10:57.577Z,14.80
2022-09-16T09:13:51.153Z,14.30
2022-09-16T09:16:45.849Z,14.30
2022-09-16T09:19:31.399Z,14.10
2022-09-16T09:22:35.388Z,13.90
2022-09-16T09:25:55.652Z,13.90
2022-09-16T09:29:00.269Z,13.80
2022-09-16T09:31:55.974Z,13.90
2022-09-16T09:34:46.718Z,14.10
2022-09-16T09:37:39.517Z,14.30
2022-09-16T09:40:34.768Z,14.40
2022-09-16T09:43:17.504Z,14.50
2022-09-16T09:46:06.530Z,14.70
2022-09-16T09:49:01.333Z,14.70
2022-09-16T09:51:37.934Z,14.60
2022-09-16T09:54:26.409Z,14.70
2022-09-16T09:57:06.302Z,14.50
2022-09-16T09:59:53.915Z,14.40
2022-09-16T10:02:23.563Z,14.50
2022-09-16T10:04:51.695Z,14.30
2022-09-16T10:07:23.221Z,14.30
2022-09-16T10:10:12.034Z,14.20
2022-09-16T10:12:38.692Z,14.00
2022-09-16T10:15:06.655Z,13.40
2022-09-16T10:17:33.807Z,13.10
2022-09-16T10:20:26.776Z,13.00
2022-09-16T10:23:05.256Z,13.00
2022-09-16T10:25:33.500Z,13.00
2022-09-16T10:28:04.668Z,12.80
2022-09-16T10:30:46.989Z,12.90
2022-09-16T10:33:27.777Z,13.00
2022-09-16T10:36:09.726Z,13.10
2022-09-16T10:38:43.643Z,13.10
2022-09-16T10:41:35.411Z,13.00
2022-09-16T10:44:33.216Z,12.80
2022-09-16T10:47:15.609Z,12.90
2022-09-16T10:49:54.633Z,12.90
2022-09-16T10:52:34.090Z,13.10
2022-09-16T10:55:21.821Z,13.20
2022-09-16T10:57:49.439Z,13.30
2022-09-16T11:00:20.885Z,13.40
2022-09-16T11:03:13.763Z,13.50
2022-09-16T11:06:14.690Z,13.70
2022-09-16T11:09:15.116Z,13.90
2022-09-16T11:12:07.684Z,14.00
2022-09-16T11:15:32.790Z,14.20
2022-09-16T11:18:36.004Z,14.30
2022-09-16T11:21:23.823Z,14.30
2022-09-16T11:24:50.416Z,14.10
2022-09-16T11:27:52.124Z,14.00
2022-09-16T11:30:24.388Z,14.00
2022-09-16T11:33:40.385Z,14.10
2022-09-16T11:37:10.387Z,13.60
2022-09-16T11:39:57.129Z,13.30
2022-09-16T11:42:55.821Z,13.40
2022-09-16T11:45:53.402Z,13.40
2022-09-16T11:48:54.867Z,13.70
2022-09-16T11:51:48.025Z,14.10
2022-09-16T11:54:48.437Z,14.30
2022-09-16T11:57:22.680Z,14.50
2022-09-16T12:00:26.681Z,14.70
2022-09-16T12:03:04.244Z,14.80
2022-09-16T12:05:47.894Z,14.90
2022-09-16T12:08:23.646Z,15.00
2022-09-16T12:10:58.215Z,15.00
2022-09-16T12:13:40.416Z,15.30
2022-09-16T12:16:18.289Z,15.30
2022-09-16T12:18:52.410Z,15.50
2022-09-16T12:21:40.199Z,15.30
2022-09-16T12:24:31.946Z,15.20
2022-09-16T12:27:28.105Z,15.40
2022-09-16T12:30:13.451Z,15.80
2022-09-16T12:32:59.970Z,15.80
2022-09-16T12:35:34.853Z,16.00
2022-09-16T12:38:02.204Z,15.70
2022-09-16T12:41:16.252Z,15.40
2022-09-16T12:44:30.692Z,15.30
2022-09-16T12:47:39.504Z,15.10
2022-09-16T12:50:47.139Z,14.40
2022-09-16T12:53:54.769Z,14.20
2022-09-16T12:56:56.944Z,14.20
2022-09-16T12:59:44.723Z,14.20
2022-09-16T13:02:23.718Z,14.30
2022-09-16T13:04:57.997Z,14.40
2022-09-16T13:07:42.020Z,14.30
2022-09-16T13:10:53.892Z,14.30
2022-09-16T13:13:47.414Z,14.40
2022-09-16T13:16:14.299Z,14.80
2022-09-16T13:18:50.171Z,15.00
2022-09-16T13:21:44.969Z,15.40
2022-09-16T13:24:22.794Z,15.70
2022-09-16T13:26:50.890Z,15.90
2022-09-16T13:29:44.065Z,15.90
2022-09-16T13:32:58.242Z,16.20
2022-09-16T13:35:49.683Z,16.20
2022-09-16T13:38:19.177Z,16.30
2022-09-16T13:40:59.332Z,16.30
2022-09-16T13:43:41.919Z,16.50
2022-09-16T13:46:38.012Z,16.60
2022-09-16T13:49:10.860Z,17.00
2022-09-16T13:51:45.344Z,17.10
2022-09-16T13:55:06.333Z,17.00
2022-09-16T13:57:59.720Z,16.50
2022-09-16T14:00:36.117Z,16.00
2022-09-16T14:03:36.512Z,16.00
2022-09-16T14:06:27.560Z,15.80
2022-09-16T14:09:04.437Z,15.40
2022-09-16T14:12:19.113Z,15.60
2022-09-16T14:14:48.034Z,15.90
2022-09-16T14:17:31.730Z,16.00
2022-09-16T14:20:00.472Z,16.00
2022-09-16T14:22:28.881Z,15.20
2022-09-16T14:25:06.399Z,14.70
2022-09-16T14:27:43.392Z,14.50
2022-09-16T14:30:17.662Z,14.60
2022-09-16T14:32:47.541Z,14.90
2022-09-16T14:35:29.295Z,15.00
2022-09-16T14:38:04.665Z,15.00
2022-09-16T14:40:31.656Z,15.00
2022-09-16T14:43:04.011Z,15.10
2022-09-16T14:45:52.518Z,15.10
2022-09-16T14:48:25.625Z,15.30
2022-09-16T14:50:52.456Z,15.40
2022-09-16T14:53:36.418Z,15.60
2022-09-16T14:56:05.601Z,15.80
2022-09-16T14:58:34.265Z,16.00
2022-09-16T15:01:21.179Z,16.00
2022-09-16T15:04:03.633Z,16.10
2022-09-16T15:06:42.839Z,16.20
2022-09-16T15:09:53.504Z,16.10
2022-09-16T15:12:29.326Z,16.30
2022-09-16T15:14:57.747Z,16.00
2022-09-16T15:17:37.302Z,16.30
2022-09-16T15:20:04.332Z,16.30
2022-09-16T15:22:33.524Z,16.30
2022-09-16T15:25:00.810Z,16.40
2022-09-16T15:27:32.132Z,16.40
2022-09-16T15:30:07.894Z,16.50
2022-09-16T15:32:48.257Z,16.50
2022-09-16T15:35:30.664Z,16.70
2022-09-16T15:38:00.370Z,17.00
2022-09-16T15:40:27.053Z,17.10
2022-09-16T15:43:16.368Z,16.90
2022-09-16T15:46:16.179Z,16.60
2022-09-16T15:48:51.582Z,16.10
2022-09-16T15:52:02.426Z,15.90
2022-09-16T15:54:37.903Z,15.80
2022-09-16T15:57:41.104Z,16.00
2022-09-16T16:00:16.387Z,16.20
2022-09-16T16:02:58.377Z,16.10
2022-09-16T16:05:32.982Z,16.00
2022-09-16T16:08:11.124Z,16.10
2022-09-16T16:10:38.296Z,15.90
2022-09-16T16:13:08.544Z,15.90
2022-09-16T16:15:39.954Z,15.90
2022-09-16T16:18:11.727Z,15.80
2022-09-16T16:20:42.376Z,15.80
2022-09-16T16:23:09.361Z,15.70
2022-09-16T16:25:36.350Z,15.50
2022-09-16T16:28:03.061Z,15.40
2022-09-16T16:30:31.369Z,15.40
2022-09-16T16:32:58.082Z,15.40
2022-09-16T16:35:24.861Z,15.30
2022-09-16T16:37:51.528Z,15.20
2022-09-16T16:40:18.263Z,15.00
2022-09-16T16:42:45.062Z,14.70
2022-09-16T16:45:13.985Z,14.50
2022-09-16T16:47:41.643Z,14.20
2022-09-16T16:50:09.074Z,14.20
2022-09-16T16:52:36.044Z,14.20
2022-09-16T16:55:02.936Z,14.20
2022-09-16T16:57:31.919Z,14.10
2022-09-16T16:59:58.694Z,14.10
2022-09-16T17:02:27.343Z,14.00
2022-09-16T17:04:55.723Z,14.00
2022-09-16T17:07:26.536Z,13.90
2022-09-16T17:09:58.489Z,14.10
2022-09-16T17:12:29.392Z,14.00
2022-09-16T17:14:56.057Z,14.10
2022-09-16T17:17:29.037Z,14.20
2022-09-16T17:19:57.947Z,14.20
2022-09-16T17:22:24.661Z,14.20
2022-09-16T17:24:51.554Z,14.20
2022-09-16T17:27:20.634Z,14.00
2022-09-16T17:29:47.465Z,14.00
2022-09-16T17:32:14.163Z,14.00
2022-09-16T17:34:41.584Z,14.10
2022-09-16T17:37:08.460Z,14.10
2022-09-16T17:39:35.429Z,14.20
2022-09-16T17:42:05.145Z,14.10
2022-09-16T17:44:31.801Z,14.10
2022-09-16T17:46:59.024Z,14.00
2022-09-16T17:49:25.985Z,13.90
2022-09-16T17:51:54.318Z,13.50
2022-09-16T17:54:22.564Z,13.50
2022-09-16T17:56:49.759Z,13.50
2022-09-16T17:59:18.552Z,13.50
2022-09-16T18:01:45.872Z,13.40
2022-09-16T18:04:12.684Z,13.30
2022-09-16T18:06:43.863Z,13.30
2022-09-16T18:09:14.230Z,13.20
2022-09-16T18:11:41.234Z,13.20
2022-09-16T18:14:11.763Z,13.20
2022-09-16T18:16:39.520Z,13.10
2022-09-16T18:19:07.482Z,13.10
2022-09-16T18:21:34.632Z,13.20
2022-09-16T18:24:04.940Z,13.10
2022-09-16T18:26:32.635Z,13.10
2022-09-16T18:29:11.338Z,13.20
2022-09-16T18:31:48.330Z,13.20
2022-09-16T18:34:17.049Z,13.20
2022-09-16T18:36:44.736Z,13.20
2022-09-16T18:39:15.492Z,13.10
2022-09-16T18:41:45.024Z,13.20
2022-09-16T18:44:25.540Z,13.20
2022-09-16T18:46:56.282Z,13.20
2022-09-16T18:49:24.126Z,13.20
2022-09-16T18:51:52.892Z,13.20
2022-09-16T18:54:29.335Z,13.20
2022-09-16T18:56:59.755Z,13.10
2022-09-16T18:59:31.347Z,13.10
2022-09-16T19:02:02.499Z,13.20
2022-09-16T19:04:38.188Z,13.20
2022-09-16T19:07:07.829Z,13.30
2022-09-16T19:09:41.695Z,13.20
2022-09-16T19:12:13.341Z,13.30
2022-09-16T19:14:42.926Z,13.30
2022-09-16T19:17:09.753Z,13.40
2022-09-16T19:19:39.247Z,13.40
2022-09-16T19:22:06.353Z,13.30
2022-09-16T19:24:34.364Z,13.30
2022-09-16T19:27:01.058Z,13.30
2022-09-16T19:29:27.854Z,13.50
2022-09-16T19:31:57.282Z,13.50
2022-09-16T19:34:24.035Z,13.50
2022-09-16T19:36:51.979Z,13.40
2022-09-16T19:39:19.130Z,13.50
2022-09-16T19:41:48.563Z,13.40
2022-09-16T19:44:17.543Z,13.20
2022-09-16T19:46:46.836Z,12.90
2022-09-16T19:49:19.801Z,12.80
2022-09-16T19:51:48.380Z,12.80
2022-09-16T19:54:16.554Z,12.70
2022-09-16T19:56:46.988Z,12.60
2022-09-16T19:59:16.501Z,12.60
2022-09-16T20:01:43.803Z,12.60
2022-09-16T20:04:11.371Z,12.60
2022-09-16T20:06:42.589Z,12.80
2022-09-16T20:09:14.788Z,12.60
2022-09-16T20:11:45.360Z,12.60
2022-09-16T20:14:20.923Z,12.60
2022-09-16T20:16:56.600Z,12.60
2022-09-16T20:19:23.293Z,12.60
2022-09-16T20:21:50.117Z,12.70
2022-09-16T20:24:20.859Z,12.60
2022-09-16T20:26:54.674Z,12.70
2022-09-16T20:29:21.503Z,12.80
2022-09-16T20:31:52.508Z,12.60
2022-09-16T20:34:20.291Z,12.60
2022-09-16T20:36:47.060Z,12.60
2022-09-16T20:39:15.032Z,12.60
2022-09-16T20:41:45.449Z,12.60
2022-09-16T20:44:15.436Z,12.60
2022-09-16T20:46:42.354Z,12.60
2022-09-16T20:49:23.365Z,12.60
2022-09-16T20:51:50.583Z,12.60
2022-09-16T20:54:17.415Z,12.60
2022-09-16T20:56:47.044Z,12.60
2022-09-16T20:59:17.437Z,12.60
2022-09-16T21:01:44.971Z,12.50
2022-09-16T21:04:18.409Z,12.50
2022-09-16T21:06:46.228Z,12.50
2022-09-16T21:09:19.314Z,12.50
2022-09-16T21:11:46.538Z,12.60
2022-09-16T21:14:16.702Z,12.60
2022-09-16T21:16:46.029Z,12.70
2022-09-16T21:19:13.343Z,12.70
2022-09-16T21:21:44.190Z,12.70
2022-09-16T21:24:13.055Z,12.80
2022-09-16T21:26:41.222Z,12.70
2022-09-16T21:29:18.819Z,12.60
2022-09-16T21:31:45.639Z,12.60
2022-09-16T21:34:20.185Z,12.60
2022-09-16T21:36:48.205Z,12.60
2022-09-16T21:39:17.017Z,12.60
2022-09-16T21:41:46.870Z,12.60
2022-09-16T21:44:14.379Z,12.60
2022-09-16T21:46:45.203Z,12.70
2022-09-16T21:49:26.014Z,12.70
2022-09-16T21:52:20.869Z,12.70
2022-09-16T21:54:47.543Z,12.60
2022-09-16T21:57:14.645Z,12.60
2022-09-16T21:59:41.322Z,12.50
2022-09-16T22:02:08.789Z,12.50
2022-09-16T22:04:35.852Z,12.40
2022-09-16T22:07:02.519Z,12.40
2022-09-16T22:09:29.793Z,12.40
2022-09-16T22:11:56.721Z,12.40
2022-09-16T22:14:23.766Z,12.40
2022-09-16T22:16:50.534Z,12.30
2022-09-16T22:19:19.189Z,12.30
2022-09-16T22:21:53.249Z,12.30
2022-09-16T22:24:21.230Z,12.30
2022-09-16T22:26:51.993Z,12.30
2022-09-16T22:29:18.990Z,12.30
2022-09-16T22:31:45.742Z,12.20
2022-09-16T22:34:12.631Z,12.30
2022-09-16T22:36:39.497Z,12.30
2022-09-16T22:39:12.793Z,12.30
2022-09-16T22:41:39.468Z,12.20
2022-09-16T22:44:06.632Z,12.30
2022-09-16T22:46:42.937Z,12.20
2022-09-16T22:49:11.474Z,12.20
2022-09-16T22:51:38.449Z,12.30
2022-09-16T22:54:07.206Z,12.30
2022-09-16T22:56:35.684Z,12.40
2022-09-16T22:59:06.294Z,12.40
2022-09-16T23:01:37.893Z,12.40
2022-09-16T23:04:08.021Z,12.40
2022-09-16T23:06:37.299Z,12.40
2022-09-16T23:09:06.221Z,12.40
2022-09-16T23:11:35.561Z,12.50
2022-09-16T23:14:04.081Z,12.40
2022-09-16T23:16:34.972Z,12.50
2022-09-16T23:19:09.756Z,12.40
2022-09-16T23:21:38.245Z,12.40
2022-09-16T23:24:07.788Z,12.40
2022-09-16T23:26:37.412Z,12.40
2022-09-16T23:29:08.257Z,12.40
2022-09-16T23:31:42.232Z,12.40
2022-09-16T23:34:16.828Z,12.40
2022-09-16T23:36:44.384Z,12.30
2022-09-16T23:39:14.955Z,12.40
2022-09-16T23:41:43.216Z,12.40
2022-09-16T23:44:13.957Z,12.30
2022-09-16T23:46:40.856Z,12.30
2022-09-16T23:49:09.715Z,12.30
2022-09-16T23:51:37.543Z,12.40
2022-09-16T23:54:05.049Z,12.40
2022-09-16T23:56:32.013Z,12.40
2022-09-16T23:59:00.716Z,12.40
